createdAt,value
2018-02-27T00:00:35.823Z,63.03
2018-02-27T00:01:45.703Z,62.47
2018-02-27T00:02:55.361Z,62.66
2018-02-27T00:04:05.545Z,62.56
2018-02-27T00:05:15.431Z,63.07
2018-02-27T00:06:25.560Z,62.69
2018-02-27T00:07:35.730Z,62.88
2018-02-27T00:08:45.604Z,62.97
2018-02-27T00:09:55.486Z,62.94
2018-02-27T00:11:05.441Z,62.75
2018-02-27T00:12:15.572Z,62.59
2018-02-27T00:13:25.720Z,62.78
2018-02-27T00:14:35.606Z,62.59
2018-02-27T00:15:45.476Z,62.37
2018-02-27T00:16:55.837Z,62.84
2018-02-27T00:18:05.986Z,62.94
2018-02-27T00:19:15.633Z,63.22
2018-02-27T00:20:25.806Z,63.03
2018-02-27T00:21:35.919Z,63.13
2018-02-27T00:22:46.073Z,63.03
2018-02-27T00:23:55.946Z,63.03
2018-02-27T00:25:05.818Z,63.13
2018-02-27T00:26:15.746Z,63.13
2018-02-27T00:27:26.010Z,63.13
2018-02-27T00:28:36.204Z,62.75
2018-02-27T00:29:46.340Z,62.75
2018-02-27T00:30:56.330Z,63.03
2018-02-27T00:32:06.558Z,62.84
2018-02-27T00:33:16.367Z,62.84
2018-02-27T00:34:26.490Z,62.94
2018-02-27T00:35:36.596Z,62.94
2018-02-27T00:36:46.585Z,62.94
2018-02-27T00:37:56.729Z,62.84
2018-02-27T00:39:06.845Z,62.75
2018-02-27T00:40:16.456Z,62.94
2018-02-27T00:41:26.683Z,62.94
2018-02-27T00:42:36.673Z,63.03
2018-02-27T00:43:46.863Z,62.84
2018-02-27T00:44:56.614Z,63.41
2018-02-27T00:46:06.855Z,63.32
2018-02-27T00:47:17.252Z,62.94
2018-02-27T00:48:27.408Z,63.03
2018-02-27T00:49:37.744Z,62.78
2018-02-27T00:50:47.761Z,63.07
2018-02-27T00:51:57.881Z,63.07
2018-02-27T00:53:07.479Z,62.84
2018-02-27T00:54:17.711Z,62.47
2018-02-27T00:55:27.941Z,62.37
2018-02-27T00:56:38.022Z,62.84
2018-02-27T00:57:47.642Z,62.37
2018-02-27T00:58:57.799Z,62.94
2018-02-27T01:00:07.521Z,63.03
2018-02-27T01:01:17.658Z,62.94
2018-02-27T01:02:27.526Z,62.94
2018-02-27T01:03:37.627Z,63.22
2018-02-27T01:04:47.860Z,63.03
2018-02-27T01:05:57.719Z,63.03
2018-02-27T01:07:08.061Z,63.13
2018-02-27T01:08:18.168Z,62.66
2018-02-27T01:09:28.317Z,62.94
2018-02-27T01:10:38.442Z,62.94
2018-02-27T01:11:48.975Z,63.03
2018-02-27T01:12:59.045Z,63.13
2018-02-27T01:14:09.395Z,63.13
2018-02-27T01:15:20.129Z,63.03
2018-02-27T01:16:30.227Z,62.84
2018-02-27T01:17:40.373Z,62.84
2018-02-27T01:18:50.544Z,62.84
2018-02-27T01:20:00.725Z,63.03
2018-02-27T01:21:10.876Z,62.94
2018-02-27T01:22:21.059Z,63.13
2018-02-27T01:23:31.284Z,63.03
2018-02-27T01:24:41.434Z,62.94
2018-02-27T01:25:51.996Z,62.75
2018-02-27T01:27:02.235Z,63.32
2018-02-27T01:28:12.181Z,63.22
2018-02-27T01:29:22.465Z,63.51
2018-02-27T01:30:32.714Z,63.32
2018-02-27T01:31:42.892Z,63.41
2018-02-27T01:32:53.030Z,63.13
2018-02-27T01:34:03.262Z,63.41
2018-02-27T01:35:13.436Z,63.22
2018-02-27T01:36:23.342Z,63.22
2018-02-27T01:37:33.212Z,63.22
2018-02-27T01:38:43.336Z,63.13
2018-02-27T01:39:53.447Z,63.32
2018-02-27T01:41:03.612Z,63.32
2018-02-27T01:42:13.857Z,63.51
2018-02-27T01:43:24.162Z,63.32
2018-02-27T01:44:34.302Z,63.32
2018-02-27T01:45:44.630Z,63.22
2018-02-27T01:46:54.842Z,63.22
2018-02-27T01:48:05.021Z,63.51
2018-02-27T01:49:15.156Z,63.22
2018-02-27T01:50:25.331Z,63.03
2018-02-27T01:51:35.245Z,63.32
2018-02-27T01:52:45.160Z,63.6
2018-02-27T01:53:55.127Z,63.22
2018-02-27T01:55:05.334Z,63.41
2018-02-27T01:56:15.504Z,63.22
2018-02-27T01:57:25.505Z,63.51
2018-02-27T01:58:35.407Z,63.41
2018-02-27T01:59:45.453Z,63.32
2018-02-27T02:00:55.474Z,63.13
2018-02-27T02:02:05.618Z,62.94
2018-02-27T02:03:15.320Z,63.6
2018-02-27T02:04:25.211Z,63.79
2018-02-27T02:05:35.039Z,63.51
2018-02-27T02:06:44.869Z,63.13
2018-02-27T02:07:55.050Z,63.41
2018-02-27T02:09:04.963Z,63.22
2018-02-27T02:10:14.863Z,63.79
2018-02-27T02:11:25.015Z,63.89
2018-02-27T02:12:35.255Z,63.6
2018-02-27T02:13:45.644Z,64.17
2018-02-27T02:14:55.515Z,63.7
2018-02-27T02:16:05.401Z,63.7
2018-02-27T02:17:15.649Z,63.89
2018-02-27T02:18:25.509Z,64.07
2018-02-27T02:19:35.427Z,63.89
2018-02-27T02:20:45.175Z,63.89
2018-02-27T02:21:55.293Z,63.6
2018-02-27T02:23:05.074Z,64.17
2018-02-27T02:24:15.150Z,64.17
2018-02-27T02:25:25.296Z,63.7
2018-02-27T02:26:35.429Z,63.79
2018-02-27T02:27:45.636Z,63.79
2018-02-27T02:28:55.527Z,63.89
2018-02-27T02:30:05.039Z,63.79
2018-02-27T02:31:15.224Z,63.89
2018-02-27T02:32:25.339Z,63.6
2018-02-27T02:33:35.482Z,63.79
2018-02-27T02:34:45.628Z,63.32
2018-02-27T02:35:55.541Z,63.13
2018-02-27T02:37:05.135Z,63.13
2018-02-27T02:38:14.893Z,63.22
2018-02-27T02:39:24.736Z,63.22
2018-02-27T02:40:34.842Z,63.51
2018-02-27T02:41:44.983Z,63.32
2018-02-27T02:42:55.096Z,63.13
2018-02-27T02:44:04.978Z,63.51
2018-02-27T02:45:15.155Z,63.51
2018-02-27T02:46:25.302Z,63.51
2018-02-27T02:47:35.758Z,63.6
2018-02-27T02:48:45.922Z,63.51
2018-02-27T02:49:55.871Z,63.6
2018-02-27T02:51:06.034Z,63.51
2018-02-27T02:52:16.147Z,63.6
2018-02-27T02:53:26.254Z,63.89
2018-02-27T02:54:36.439Z,63.89
2018-02-27T02:55:46.533Z,64.42
2018-02-27T02:56:56.504Z,64.32
2018-02-27T02:58:06.349Z,64.51
2018-02-27T02:59:16.248Z,64.42
2018-02-27T03:00:26.602Z,64.45
2018-02-27T03:01:36.450Z,64.64
2018-02-27T03:02:46.320Z,64.17
2018-02-27T03:03:55.948Z,63.7
2018-02-27T03:05:06.142Z,63.79
2018-02-27T03:06:16.008Z,63.79
2018-02-27T03:07:25.765Z,63.57
2018-02-27T03:08:35.112Z,63.95
2018-02-27T03:09:44.916Z,64.04
2018-02-27T03:10:55.163Z,64.04
2018-02-27T03:12:04.931Z,64.32
2018-02-27T03:13:15.768Z,64.14
2018-02-27T03:14:26.389Z,64.61
2018-02-27T03:15:36.464Z,64.61
2018-02-27T03:16:46.415Z,64.79
2018-02-27T03:17:55.717Z,65.26
2018-02-27T03:19:05.150Z,65.36
2018-02-27T03:20:15.499Z,64.98
2018-02-27T03:21:25.673Z,65.45
2018-02-27T03:22:35.611Z,65.64
2018-02-27T03:23:45.498Z,65.83
2018-02-27T03:24:55.588Z,65.83
2018-02-27T03:26:05.179Z,66.3
2018-02-27T03:27:15.941Z,66.49
2018-02-27T03:28:25.713Z,66.49
2018-02-27T03:29:36.042Z,66.4
2018-02-27T03:30:45.958Z,66.77
2018-02-27T03:31:56.299Z,66.87
2018-02-27T03:33:06.453Z,66.96
2018-02-27T03:34:17.403Z,67.15
2018-02-27T03:35:28.149Z,67.06
2018-02-27T03:36:39.460Z,67.25
2018-02-27T03:37:49.580Z,67.15
2018-02-27T03:38:59.454Z,67.15
2018-02-27T03:40:09.604Z,67.15
2018-02-27T03:41:19.754Z,67.15
2018-02-27T03:42:29.612Z,66.77
2018-02-27T03:43:39.884Z,67.34
2018-02-27T03:44:50.538Z,66.87
2018-02-27T03:46:00.660Z,67.34
2018-02-27T03:47:11.090Z,67.25
2018-02-27T03:48:20.959Z,66.77
2018-02-27T03:49:31.103Z,66.96
2018-02-27T03:50:41.272Z,67.15
2018-02-27T03:51:51.654Z,67.06
2018-02-27T03:53:01.967Z,67.43
2018-02-27T03:54:11.839Z,67.43
2018-02-27T03:55:21.970Z,67.34
2018-02-27T03:56:32.711Z,67.06
2018-02-27T03:57:42.816Z,67.25
2018-02-27T03:58:52.659Z,67.34
2018-02-27T04:00:02.781Z,67.3
2018-02-27T04:01:12.920Z,67.4
2018-02-27T04:02:23.054Z,67.59
2018-02-27T04:03:33.971Z,67.49
2018-02-27T04:04:45.055Z,67.4
2018-02-27T04:05:55.233Z,67.68
2018-02-27T04:07:05.364Z,67.78
2018-02-27T04:08:15.616Z,67.87
2018-02-27T04:09:25.854Z,67.68
2018-02-27T04:10:36.050Z,67.87
2018-02-27T04:11:46.359Z,67.59
2018-02-27T04:12:56.288Z,68.06
2018-02-27T04:14:06.391Z,67.97
2018-02-27T04:15:16.242Z,68.25
2018-02-27T04:16:26.362Z,68.06
2018-02-27T04:17:36.581Z,67.78
2018-02-27T04:18:46.351Z,67.68
2018-02-27T04:19:56.448Z,67.72
2018-02-27T04:21:06.754Z,67.25
2018-02-27T04:22:16.067Z,67.25
2018-02-27T04:23:26.475Z,67.25
2018-02-27T04:24:36.739Z,66.87
2018-02-27T04:25:47.360Z,67.53
2018-02-27T04:26:57.263Z,67.21
2018-02-27T04:28:07.407Z,67.21
2018-02-27T04:29:17.278Z,67.02
2018-02-27T04:30:28.003Z,67.02
2018-02-27T04:31:38.017Z,67.02
2018-02-27T04:32:47.732Z,67.3
2018-02-27T04:33:58.186Z,67.49
2018-02-27T04:35:08.300Z,67.3
2018-02-27T04:36:18.503Z,66.83
2018-02-27T04:37:28.365Z,67.02
2018-02-27T04:38:38.545Z,67.12
2018-02-27T04:39:48.414Z,67.02
2018-02-27T04:40:58.584Z,67.4
2018-02-27T04:42:08.699Z,67.02
2018-02-27T04:43:19.035Z,67.21
2018-02-27T04:44:28.819Z,67.3
2018-02-27T04:45:38.925Z,67.59
2018-02-27T04:46:48.795Z,67.97
2018-02-27T04:47:58.952Z,67.97
2018-02-27T04:49:09.028Z,67.78
2018-02-27T04:50:18.950Z,67.12
2018-02-27T04:51:29.092Z,67.21
2018-02-27T04:52:38.937Z,67.02
2018-02-27T04:53:49.051Z,66.93
2018-02-27T04:54:59.172Z,66.93
2018-02-27T04:56:10.267Z,67.3
2018-02-27T04:57:20.126Z,67.02
2018-02-27T04:58:30.473Z,67.3
2018-02-27T04:59:40.111Z,67.12
2018-02-27T05:00:50.252Z,67.59
2018-02-27T05:02:00.100Z,67.78
2018-02-27T05:03:10.024Z,67.87
2018-02-27T05:04:20.325Z,67.97
2018-02-27T05:05:30.205Z,67.97
2018-02-27T05:06:40.371Z,67.78
2018-02-27T05:07:50.607Z,67.68
2018-02-27T05:09:00.786Z,67.68
2018-02-27T05:10:10.724Z,67.78
2018-02-27T05:11:20.247Z,67.78
2018-02-27T05:12:30.459Z,67.87
2018-02-27T05:13:40.370Z,67.78
2018-02-27T05:14:50.500Z,67.59
2018-02-27T05:16:00.619Z,67.87
2018-02-27T05:17:10.742Z,68.15
2018-02-27T05:18:20.887Z,68.44
2018-02-27T05:19:31.064Z,68.25
2018-02-27T05:20:40.973Z,68.25
2018-02-27T05:21:51.107Z,67.87
2018-02-27T05:23:01.245Z,67.78
2018-02-27T05:24:10.890Z,67.59
2018-02-27T05:25:20.703Z,67.59
2018-02-27T05:26:30.837Z,67.78
2018-02-27T05:27:40.709Z,67.87
2018-02-27T05:28:50.846Z,67.68
2018-02-27T05:30:00.963Z,67.87
2018-02-27T05:31:11.257Z,67.59
2018-02-27T05:32:20.823Z,67.68
2018-02-27T05:33:30.688Z,67.78
2018-02-27T05:34:40.949Z,67.59
2018-02-27T05:35:51.132Z,67.78
2018-02-27T05:37:01.277Z,67.78
2018-02-27T05:38:11.431Z,67.87
2018-02-27T05:39:21.044Z,67.68
2018-02-27T05:40:31.191Z,68.15
2018-02-27T05:41:41.362Z,68.25
2018-02-27T05:42:51.571Z,68.06
2018-02-27T05:44:01.671Z,68.15
2018-02-27T05:45:11.582Z,68.34
2018-02-27T05:46:21.735Z,68.91
2018-02-27T05:47:31.897Z,68.72
2018-02-27T05:48:42.068Z,68.72
2018-02-27T05:49:52.213Z,68.53
2018-02-27T05:51:02.419Z,68.63
2018-02-27T05:52:12.278Z,69.19
2018-02-27T05:53:22.497Z,69.19
2018-02-27T05:54:32.668Z,69.29
2018-02-27T05:55:42.154Z,69.19
2018-02-27T05:56:52.053Z,69.1
2018-02-27T05:58:02.258Z,68.82
2018-02-27T05:59:12.145Z,68.82
2018-02-27T06:00:22.319Z,68.53
2018-02-27T06:01:32.483Z,68.82
2018-02-27T06:02:42.350Z,68.53
2018-02-27T06:03:52.305Z,68.72
2018-02-27T06:05:02.704Z,68.91
2018-02-27T06:06:12.592Z,68.25
2018-02-27T06:07:22.832Z,68.34
2018-02-27T06:08:33.064Z,68.06
2018-02-27T06:09:42.924Z,68.15
2018-02-27T06:10:53.099Z,68.25
2018-02-27T06:12:02.767Z,68.53
2018-02-27T06:13:12.888Z,68.15
2018-02-27T06:14:23.070Z,68.06
2018-02-27T06:15:33.224Z,68.15
2018-02-27T06:16:43.393Z,68.72
2018-02-27T06:17:53.644Z,68.44
2018-02-27T06:19:04.860Z,68.53
2018-02-27T06:20:15.003Z,68.25
2018-02-27T06:21:25.118Z,68.53
2018-02-27T06:22:35.041Z,68.53
2018-02-27T06:23:45.358Z,68.44
2018-02-27T06:24:55.588Z,68.91
2018-02-27T06:26:05.448Z,68.63
2018-02-27T06:27:15.573Z,68.53
2018-02-27T06:28:25.695Z,68.53
2018-02-27T06:29:35.866Z,68.53
2018-02-27T06:30:46.227Z,69.1
2018-02-27T06:31:56.012Z,68.53
2018-02-27T06:33:06.211Z,68.34
2018-02-27T06:34:16.357Z,68.72
2018-02-27T06:35:26.229Z,68.34
2018-02-27T06:36:36.116Z,67.87
2018-02-27T06:37:45.756Z,68.25
2018-02-27T06:38:55.688Z,67.68
2018-02-27T06:40:05.823Z,67.62
2018-02-27T06:41:15.446Z,67.34
2018-02-27T06:42:25.572Z,67.06
2018-02-27T06:43:35.683Z,66.96
2018-02-27T06:44:46.049Z,67.15
2018-02-27T06:45:56.054Z,66.96
2018-02-27T06:47:05.643Z,67.34
2018-02-27T06:48:16.651Z,67.43
2018-02-27T06:49:26.717Z,67.06
2018-02-27T06:50:37.248Z,66.87
2018-02-27T06:51:49.422Z,67.15
2018-02-27T06:52:59.652Z,67.15
2018-02-27T06:54:10.558Z,66.77
2018-02-27T06:55:20.916Z,66.4
2018-02-27T06:56:31.085Z,65.83
2018-02-27T06:57:40.898Z,66.11
2018-02-27T06:58:51.332Z,65.92
2018-02-27T07:00:01.736Z,65.83
2018-02-27T07:01:12.365Z,65.92
2018-02-27T07:02:25.323Z,65.83
2018-02-27T07:03:35.994Z,66.4
2018-02-27T07:04:48.038Z,66.21
2018-02-27T07:05:59.182Z,66.21
2018-02-27T07:07:09.673Z,65.73
2018-02-27T07:08:21.117Z,65.92
2018-02-27T07:09:32.544Z,65.83
2018-02-27T07:10:43.494Z,65.92
2018-02-27T07:11:54.588Z,65.83
2018-02-27T07:13:06.330Z,65.73
2018-02-27T07:14:16.486Z,65.92
2018-02-27T07:15:26.632Z,65.83
2018-02-27T07:16:37.601Z,65.83
2018-02-27T07:17:48.233Z,65.64
2018-02-27T07:18:58.205Z,66.49
2018-02-27T07:20:08.372Z,66.4
2018-02-27T07:21:19.349Z,66.49
2018-02-27T07:22:30.047Z,66.4
2018-02-27T07:23:40.689Z,66.58
2018-02-27T07:24:51.950Z,66.3
2018-02-27T07:26:02.154Z,65.92
2018-02-27T07:27:12.697Z,65.3
2018-02-27T07:28:24.985Z,64.92
2018-02-27T07:29:35.064Z,64.64
2018-02-27T07:30:45.831Z,64.54
2018-02-27T07:31:55.758Z,63.51
2018-02-27T07:33:05.922Z,63.41
2018-02-27T07:34:16.769Z,62.66
2018-02-27T07:35:28.226Z,62.21
2018-02-27T07:36:38.584Z,62.21
2018-02-27T07:37:48.906Z,61.93
2018-02-27T07:38:59.698Z,61.55
2018-02-27T07:40:10.513Z,61.55
2018-02-27T07:41:20.692Z,60.8
2018-02-27T07:42:31.753Z,59.95
2018-02-27T07:43:43.763Z,59.29
2018-02-27T07:44:54.148Z,59.32
2018-02-27T07:46:04.320Z,58.18
2018-02-27T07:47:14.533Z,58.09
2018-02-27T07:48:25.367Z,57.53
2018-02-27T07:49:35.829Z,56.42
2018-02-27T07:50:46.074Z,55.94
2018-02-27T07:51:55.969Z,55.94
2018-02-27T07:53:05.623Z,55.38
2018-02-27T07:54:15.173Z,55.29
2018-02-27T07:55:25.318Z,54.91
2018-02-27T07:56:35.231Z,54.81
2018-02-27T07:57:45.529Z,54.62
2018-02-27T07:58:55.930Z,54.53
2018-02-27T08:00:05.986Z,54.5
2018-02-27T08:01:15.927Z,54.6
2018-02-27T08:02:26.062Z,54.69
2018-02-27T08:03:35.963Z,54.5
2018-02-27T08:04:45.886Z,54.5
2018-02-27T08:05:56.021Z,54.5
2018-02-27T08:07:06.154Z,54.75
2018-02-27T08:08:16.367Z,54.85
2018-02-27T08:09:26.755Z,54.94
2018-02-27T08:10:37.015Z,54.94
2018-02-27T08:11:47.172Z,55.32
2018-02-27T08:12:57.477Z,55.23
2018-02-27T08:14:07.845Z,55.51
2018-02-27T08:15:18.036Z,55.42
2018-02-27T08:16:27.823Z,55.7
2018-02-27T08:17:37.974Z,54.85
2018-02-27T08:18:48.113Z,54.66
2018-02-27T08:19:58.531Z,54.57
2018-02-27T08:21:09.001Z,54.66
2018-02-27T08:22:18.875Z,54.75
2018-02-27T08:23:28.789Z,54.57
2018-02-27T08:24:39.045Z,54.47
2018-02-27T08:25:49.176Z,54.66
2018-02-27T08:26:58.805Z,54.38
2018-02-27T08:28:09.152Z,53.91
2018-02-27T08:29:18.792Z,54.1
2018-02-27T08:30:29.389Z,54.1
2018-02-27T08:31:39.420Z,53.81
2018-02-27T08:32:49.616Z,54.19
2018-02-27T08:33:59.518Z,54.47
2018-02-27T08:35:09.402Z,54.28
2018-02-27T08:36:19.556Z,54.47
2018-02-27T08:37:29.442Z,54.28
2018-02-27T08:38:39.379Z,54.57
2018-02-27T08:39:49.606Z,54.47
2018-02-27T08:40:59.832Z,54.28
2018-02-27T08:42:09.978Z,54.38
2018-02-27T08:43:19.895Z,54.19
2018-02-27T08:44:30.016Z,53.84
2018-02-27T08:45:40.164Z,53.18
2018-02-27T08:46:50.406Z,52.61
2018-02-27T08:48:00.580Z,51.95
2018-02-27T08:49:10.823Z,52.07
2018-02-27T08:50:20.947Z,51.6
2018-02-27T08:51:31.136Z,50.3
2018-02-27T08:52:41.276Z,49.54
2018-02-27T08:53:51.285Z,48.72
2018-02-27T08:55:01.529Z,48.06
2018-02-27T08:56:11.812Z,47.42
2018-02-27T08:57:22.095Z,46.37
2018-02-27T08:58:32.285Z,46.02
2018-02-27T08:59:42.432Z,46.12
2018-02-27T09:00:52.561Z,45.07
2018-02-27T09:02:02.520Z,44.6
2018-02-27T09:03:12.680Z,44.51
2018-02-27T09:04:22.813Z,43.75
2018-02-27T09:05:32.639Z,43.08
2018-02-27T09:06:42.776Z,42.97
2018-02-27T09:07:53.043Z,42.61
2018-02-27T09:09:02.606Z,42.33
2018-02-27T09:10:12.254Z,41.97
2018-02-27T09:11:22.048Z,41.78
2018-02-27T09:12:32.252Z,41.52
2018-02-27T09:13:42.542Z,39.81
2018-02-27T09:14:53.079Z,38.96
2018-02-27T09:16:03.511Z,38.67
2018-02-27T09:17:13.777Z,37.82
2018-02-27T09:18:23.637Z,37.74
2018-02-27T09:19:33.544Z,36.89
2018-02-27T09:20:43.744Z,36.05
2018-02-27T09:21:53.653Z,35.88
2018-02-27T09:23:03.523Z,34.48
2018-02-27T09:24:13.677Z,34.11
2018-02-27T09:25:23.607Z,33.07
2018-02-27T09:26:33.407Z,32.51
2018-02-27T09:27:43.563Z,31.85
2018-02-27T09:28:54.478Z,30.63
2018-02-27T09:31:20.346Z,30.15
2018-02-27T09:32:30.541Z,29.2
2018-02-27T09:33:40.749Z,28.82
2018-02-27T09:34:50.934Z,28.93
2018-02-27T09:36:01.286Z,26.84
2018-02-27T09:37:11.582Z,25.96
2018-02-27T09:38:21.631Z,25.76
2018-02-27T09:39:31.313Z,26.34
2018-02-27T09:40:40.854Z,26.53
2018-02-27T09:41:50.831Z,26.14
2018-02-27T09:43:01.023Z,25.67
2018-02-27T09:44:11.239Z,25.78
2018-02-27T09:45:21.407Z,25.3
2018-02-27T09:46:31.577Z,25.78
2018-02-27T09:47:41.512Z,25.67
2018-02-27T09:48:51.720Z,25.67
2018-02-27T09:50:01.958Z,25.75
2018-02-27T09:51:11.859Z,26.03
2018-02-27T09:52:22.198Z,26.31
2018-02-27T09:53:32.548Z,26.86
2018-02-27T09:54:42.791Z,27.23
2018-02-27T09:55:52.701Z,27.8
2018-02-27T09:57:02.871Z,27.61
2018-02-27T09:58:13.279Z,27.51
2018-02-27T09:59:24.215Z,27.7
2018-02-27T10:00:34.637Z,27.51
2018-02-27T10:01:45.563Z,27.53
2018-02-27T10:02:55.962Z,26.96
2018-02-27T10:04:06.943Z,25.92
2018-02-27T10:05:17.322Z,26.29
2018-02-27T10:06:27.102Z,26.01
2018-02-27T10:07:37.506Z,26.39
2018-02-27T10:08:47.352Z,26.48
2018-02-27T10:09:57.297Z,26.88
2018-02-27T10:11:08.017Z,26.12
2018-02-27T10:12:18.300Z,26.13
2018-02-27T10:13:28.206Z,25.67
2018-02-27T10:14:38.303Z,25.29
2018-02-27T10:15:48.643Z,25.02
2018-02-27T10:16:58.520Z,24.26
2018-02-27T10:18:08.914Z,23.98
2018-02-27T10:19:19.150Z,23.88
2018-02-27T10:20:29.373Z,23.88
2018-02-27T10:22:54.533Z,23.96
2018-02-27T10:24:05.828Z,23.29
2018-02-27T10:25:16.056Z,23.85
2018-02-27T10:27:43.674Z,24.41
2018-02-27T10:32:34.995Z,24.88
2018-02-27T10:33:46.391Z,25.07
2018-02-27T10:34:57.826Z,24.88
2018-02-27T10:36:09.923Z,24.32
2018-02-27T10:38:35.352Z,24.11
2018-02-27T10:39:46.756Z,24.19
2018-02-27T10:42:13.098Z,24.29
2018-02-27T10:43:23.471Z,24.01
2018-02-27T10:44:33.731Z,24.19
2018-02-27T10:45:43.882Z,23.54
2018-02-27T10:46:54.057Z,23.64
2018-02-27T10:48:04.231Z,23.74
2018-02-27T10:49:14.703Z,22.99
2018-02-27T10:50:24.987Z,23.57
2018-02-27T10:51:35.460Z,23.77
2018-02-27T10:52:45.645Z,23.48
2018-02-27T10:53:55.794Z,23.2
2018-02-27T10:55:05.715Z,22.34
2018-02-27T10:56:15.866Z,21.86
2018-02-27T10:57:26.055Z,21.12
2018-02-27T10:58:36.252Z,20.36
2018-02-27T10:59:46.147Z,20.26
2018-02-27T11:00:56.348Z,20.26
2018-02-27T11:02:06.500Z,20.73
2018-02-27T11:03:16.041Z,21.21
2018-02-27T11:04:26.224Z,21.5
2018-02-27T11:05:36.439Z,21.78
2018-02-27T11:06:46.802Z,21.02
2018-02-27T11:07:57.021Z,20.27
2018-02-27T11:09:06.949Z,19.51
2018-02-27T11:10:17.104Z,20.27
2018-02-27T11:11:27.641Z,20.73
2018-02-27T11:12:38.681Z,20.73
2018-02-27T11:13:48.971Z,21.12
2018-02-27T11:14:59.435Z,21.48
2018-02-27T11:16:09.250Z,21.77
2018-02-27T11:17:20.309Z,21.58
2018-02-27T11:18:30.513Z,21.09
2018-02-27T11:19:40.964Z,21.28
2018-02-27T11:20:51.566Z,21.19
2018-02-27T11:22:02.178Z,20.99
2018-02-27T11:23:12.591Z,21.08
2018-02-27T11:24:23.047Z,21.56
2018-02-27T11:25:33.251Z,22.21
2018-02-27T11:26:43.939Z,21.93
2018-02-27T11:27:55.236Z,22.02
2018-02-27T11:29:05.488Z,22.5
2018-02-27T11:30:16.119Z,22.69
2018-02-27T11:31:26.940Z,22.78
2018-02-27T11:32:37.577Z,22.78
2018-02-27T11:33:48.433Z,22.31
2018-02-27T11:34:58.179Z,22.12
2018-02-27T11:36:11.651Z,21.75
2018-02-27T11:37:22.202Z,21.75
2018-02-27T11:38:33.570Z,21.84
2018-02-27T11:39:43.957Z,21.09
2018-02-27T11:40:54.562Z,20.9
2018-02-27T11:42:04.747Z,20.25
2018-02-27T11:43:14.428Z,20.44
2018-02-27T11:44:23.984Z,19.96
2018-02-27T11:45:34.317Z,19.49
2018-02-27T11:46:44.717Z,19.68
2018-02-27T11:47:54.853Z,19.59
2018-02-27T11:49:05.185Z,20.34
2018-02-27T11:50:15.061Z,20.63
2018-02-27T11:51:25.759Z,20.25
2018-02-27T11:52:36.179Z,20.15
2018-02-27T11:53:46.270Z,19.78
2018-02-27T11:54:56.627Z,20.07
2018-02-27T11:56:07.199Z,19.69
2018-02-27T11:57:17.380Z,19.7
2018-02-27T11:59:42.667Z,19.42
2018-02-27T12:00:57.253Z,18.65
2018-02-27T12:03:26.987Z,18.84
2018-02-27T12:04:37.331Z,18.94
2018-02-27T12:05:47.872Z,19.32
2018-02-27T12:06:58.255Z,19.6
2018-02-27T12:08:09.569Z,20.56
2018-02-27T12:09:22.089Z,21.03
2018-02-27T12:10:31.984Z,21.22
2018-02-27T12:11:42.445Z,21.51
2018-02-27T12:12:52.469Z,21.03
2018-02-27T12:14:03.544Z,21.22
2018-02-27T12:15:14.870Z,21.97
2018-02-27T12:17:45.895Z,22.06
2018-02-27T12:18:55.927Z,22.16
2018-02-27T12:20:08.054Z,22.16
2018-02-27T12:21:21.654Z,22.35
2018-02-27T12:22:31.623Z,22.54
2018-02-27T12:23:41.181Z,23.29
2018-02-27T12:24:51.325Z,23.29
2018-02-27T12:26:02.064Z,23.67
2018-02-27T12:27:12.458Z,23.67
2018-02-27T12:28:22.672Z,23.4
2018-02-27T12:29:32.631Z,23.3
2018-02-27T12:30:43.022Z,23.78
2018-02-27T12:31:53.418Z,24.16
2018-02-27T12:33:03.562Z,24.16
2018-02-27T12:34:14.408Z,24.16
2018-02-27T12:35:24.721Z,23.88
2018-02-27T12:36:35.149Z,23.59
2018-02-27T12:37:45.345Z,23.3
2018-02-27T12:38:55.090Z,23.49
2018-02-27T12:40:05.397Z,23.3
2018-02-27T12:41:18.877Z,23.32
2018-02-27T12:42:28.910Z,22.94
2018-02-27T12:43:39.205Z,22.94
2018-02-27T12:44:50.026Z,23.32
2018-02-27T12:46:00.241Z,23.78
2018-02-27T12:47:10.655Z,23.49
2018-02-27T12:48:19.942Z,23.68
2018-02-27T12:49:30.371Z,23.78
2018-02-27T12:50:40.997Z,23.88
2018-02-27T12:51:50.886Z,23.68
2018-02-27T12:53:01.076Z,23.02
2018-02-27T12:54:11.875Z,24.07
2018-02-27T12:55:22.639Z,24.34
2018-02-27T12:56:33.510Z,24.43
2018-02-27T12:57:43.806Z,25.1
2018-02-27T12:58:54.211Z,25.27
2018-02-27T13:00:04.415Z,25.46
2018-02-27T13:01:13.921Z,25.75
2018-02-27T13:02:24.353Z,25.94
2018-02-27T13:03:34.919Z,25.75
2018-02-27T13:04:45.374Z,26.13
2018-02-27T13:05:55.819Z,25.94
2018-02-27T13:07:06.253Z,25.94
2018-02-27T13:08:16.767Z,25.65
2018-02-27T13:09:26.952Z,26.14
2018-02-27T13:10:37.248Z,25.76
2018-02-27T13:11:47.968Z,25.48
2018-02-27T13:13:01.422Z,25.01
2018-02-27T13:14:11.377Z,25.2
2018-02-27T13:15:21.398Z,25.38
2018-02-27T13:16:31.321Z,25.48
2018-02-27T13:17:42.024Z,25.76
2018-02-27T13:18:52.230Z,25.65
2018-02-27T13:20:02.424Z,25.56
2018-02-27T13:21:12.979Z,26.23
2018-02-27T13:22:23.933Z,26.51
2018-02-27T13:23:34.498Z,26.31
2018-02-27T13:24:44.930Z,25.84
2018-02-27T13:25:54.866Z,25.74
2018-02-27T13:27:05.175Z,25.73
2018-02-27T13:28:16.079Z,26.1
2018-02-27T13:29:27.502Z,26.28
2018-02-27T13:30:37.992Z,26.95
2018-02-27T13:31:48.497Z,27.14
2018-02-27T13:32:59.957Z,27.42
2018-02-27T13:34:10.355Z,27.89
2018-02-27T13:35:21.356Z,28.07
2018-02-27T13:36:31.554Z,28.07
2018-02-27T13:37:42.407Z,28.45
2018-02-27T13:38:53.166Z,28.45
2018-02-27T13:40:03.578Z,28.64
2018-02-27T13:41:14.259Z,28.64
2018-02-27T13:42:24.682Z,28.75
2018-02-27T13:43:35.092Z,28.36
2018-02-27T13:44:44.866Z,28.74
2018-02-27T13:45:55.062Z,28.83
2018-02-27T13:47:05.305Z,28.92
2018-02-27T13:48:15.249Z,29.21
2018-02-27T13:49:27.939Z,29.59
2018-02-27T13:50:38.119Z,29.59
2018-02-27T13:51:48.898Z,30.06
2018-02-27T13:52:59.307Z,30.25
2018-02-27T13:54:09.112Z,30.82
2018-02-27T13:55:19.515Z,31.56
2018-02-27T13:56:30.181Z,31.75
2018-02-27T13:57:40.251Z,31.75
2018-02-27T13:58:51.041Z,32.42
2018-02-27T14:00:01.433Z,32.51
2018-02-27T14:01:11.730Z,32.51
2018-02-27T14:02:21.667Z,32.79
2018-02-27T14:03:32.678Z,33.54
2018-02-27T14:04:43.223Z,33.73
2018-02-27T14:05:53.215Z,33.63
2018-02-27T14:07:03.697Z,33.82
2018-02-27T14:08:13.876Z,33.92
2018-02-27T14:09:24.538Z,33.63
2018-02-27T14:10:34.745Z,33.63
2018-02-27T14:11:45.375Z,33.92
2018-02-27T14:12:55.778Z,33.92
2018-02-27T14:14:06.024Z,34.2
2018-02-27T14:15:16.218Z,34.2
2018-02-27T14:16:26.220Z,34.39
2018-02-27T14:17:35.917Z,34.58
2018-02-27T14:18:46.849Z,34.48
2018-02-27T14:19:57.508Z,34.77
2018-02-27T14:21:07.935Z,34.77
2018-02-27T14:22:18.068Z,34.77
2018-02-27T14:23:29.087Z,34.96
2018-02-27T14:24:39.472Z,34.86
2018-02-27T14:25:49.914Z,34.96
2018-02-27T14:27:00.235Z,35.22
2018-02-27T14:28:11.733Z,35.34
2018-02-27T14:29:21.777Z,34.94
2018-02-27T14:30:32.180Z,35.22
2018-02-27T14:31:42.755Z,35.22
2018-02-27T14:32:52.663Z,35.22
2018-02-27T14:34:03.109Z,35.32
2018-02-27T14:35:14.669Z,35.22
2018-02-27T14:36:25.890Z,35.32
2018-02-27T14:37:37.335Z,35.41
2018-02-27T14:38:47.883Z,35.22
2018-02-27T14:39:59.900Z,35.51
2018-02-27T14:41:11.448Z,35.6
2018-02-27T14:42:21.859Z,35.89
2018-02-27T14:43:32.805Z,36.08
2018-02-27T14:44:43.456Z,36.65
2018-02-27T14:45:55.186Z,37.5
2018-02-27T14:47:05.627Z,37.31
2018-02-27T14:48:15.812Z,37.12
2018-02-27T14:49:26.356Z,37.21
2018-02-27T14:50:36.084Z,37.59
2018-02-27T14:51:47.093Z,37.69
2018-02-27T14:52:57.453Z,38.35
2018-02-27T14:54:08.060Z,38.82
2018-02-27T14:55:18.452Z,39.29
2018-02-27T14:56:29.043Z,39.77
2018-02-27T14:57:39.229Z,39.96
2018-02-27T14:58:50.055Z,39.77
2018-02-27T14:59:59.898Z,40.13
2018-02-27T15:01:11.173Z,40.22
2018-02-27T15:02:22.237Z,40.41
2018-02-27T15:03:33.000Z,40.13
2018-02-27T15:04:43.673Z,40.6
2018-02-27T15:05:54.804Z,40.51
2018-02-27T15:07:05.359Z,40.7
2018-02-27T15:08:15.957Z,40.51
2018-02-27T15:09:26.924Z,40.6
2018-02-27T15:10:37.973Z,40.6
2018-02-27T15:11:48.429Z,40.7
2018-02-27T15:12:59.279Z,40.6
2018-02-27T15:14:09.936Z,40.6
2018-02-27T15:15:21.177Z,40.6
2018-02-27T15:16:31.811Z,40.6
2018-02-27T15:17:42.696Z,41.08
2018-02-27T15:18:54.644Z,41.46
2018-02-27T15:20:06.873Z,41.82
2018-02-27T15:21:18.929Z,41.55
2018-02-27T15:22:30.033Z,41.53